Fox, Arkansas
Current Conditions -  °F | °C
As of 2:15 PM on Thursday 29 Jan 2015 (Local Time) from KCCA Reporting Station
Haze Haze  
Wind Chill: 44°   Ceiling: 2800
Heat Index: 48°   Visibility: 5mi
Dew Point: 36°   Wind: 10mph
Humidity: 62%   Direction: 340°NNW
Pressure: 30.28"   Gusts: 23mph
Location:  35.79°N, 92.3°W
Report Text: KCCA 292015Z AUTO 34009G20KT 030V010 5SM HZ OVC028 09/02 A3028 RMK AO2
Loading
Personal Weather Stations






























Interactive Weather Map New forecast layout! Learn more

10-Day Weather Forecast

Advertisements
Track Severe Weather on mobile